Time;durP1;ratioP1;P1;durP2;ratioP2;P2;SDS_P1;SDS_P2;PMS_P1;PMS_P2;Temp;Humidity;BMP_temperature;BMP_pressure;BME280_temperature;BME280_humidity;BME280_pressure;Samples;Min_cycle;Max_cycle;Signal;HPM_P1;HPM_P2
2022/09/20 00:00:26;;;;;;;;;;;;;;;7.82;88.79;97373.56;30001;983;1876;-73
2022/09/20 00:01:22;;;;;;;;;;;;;;;7.81;88.78;97371.94;30001;983;1881;-73
2022/09/20 00:01:54;;;;;;;;;;;;;;;7.83;89.86;97375.19;30001;983;1872;-72
2022/09/20 00:02:24;;;;;;;;;;;;;;;7.81;89.93;97373.84;30001;983;1881;-73
2022/09/20 00:02:55;;;;;;;;;;;;;;;7.81;90.05;97371.94;30001;982;1863;-72
2022/09/20 00:03:26;;;;;;;;;;;;;;;7.79;89.70;97373.28;30001;982;1872;-73
2022/09/20 00:03:58;;;;;;;;;;;;;;;7.79;90.17;97374.09;30001;982;1863;-72
2022/09/20 00:04:29;;;;;;;;;;;;;;;7.80;89.95;97375.72;30001;982;1873;-74
2022/09/20 00:05:00;;;;;;;;;;;;;;;7.80;90.63;97375.72;30001;982;1877;-73
2022/09/20 00:05:35;;;;;;;;;;;;;;;7.80;90.68;97367.62;30001;983;1880;-72
2022/09/20 00:06:07;;;;;;;;;;;;;;;7.82;90.79;97368.16;30001;983;1876;-73
2022/09/20 00:06:38;;;;;;;;;;;;;;;7.83;90.27;97368.97;30001;983;1881;-73
2022/09/20 00:07:09;;;;;;;;;;;;;;;7.84;90.76;97371.41;30001;983;1876;-73
2022/09/20 00:07:43;;;;;;;;;;;;;;;7.83;90.78;97364.41;30001;983;1787;-73
2022/09/20 00:08:15;;;;;;;;;;;;;;;7.83;91.23;97369.78;30001;983;1876;-73
2022/09/20 00:08:46;;;;;;;;;;;;;;;7.82;91.39;97368.16;30001;983;1868;-73
2022/09/20 00:09:16;;;;;;;;;;;;;;;7.81;91.28;97371.94;30001;983;1868;-73
2022/09/20 00:09:47;;;;;;;;;;;;;;;7.81;91.61;97366.53;30001;983;1868;-73
2022/09/20 00:10:21;;;;;;;;;;;;;;;7.82;91.72;97362.78;30001;983;1868;-74
2022/09/20 00:11:00;;;;;;;;;;;;;;;7.82;91.51;97362.78;30001;982;1881;-73
2022/09/20 00:11:32;;;;;;;;;;;;;;;7.82;92.01;97368.16;30001;982;1877;-73
2022/09/20 00:12:04;;;;;;;;;;;;;;;7.80;91.63;97364.91;30001;982;1881;-73
2022/09/20 00:12:34;;;;;;;;;;;;;;;7.80;91.40;97364.91;30001;982;1877;-73
2022/09/20 00:13:06;;;;;;;;;;;;;;;7.82;91.19;97367.34;30001;983;1880;-73
2022/09/20 00:13:38;;;;;;;;;;;;;;;7.83;91.26;97359.00;30001;983;1876;-73
2022/09/20 00:14:09;;;;;;;;;;;;;;;7.85;90.49;97364.94;30001;983;1867;-72
2022/09/20 00:14:40;;;;;;;;;;;;;;;7.84;90.42;97363.31;30001;983;1867;-73
2022/09/20 00:15:10;;;;;;;;;;;;;;;7.84;90.06;97366.03;30001;983;1880;-73
2022/09/20 00:15:43;;;;;;;;;;;;;;;7.83;90.19;97359.00;30001;983;1876;-73
2022/09/20 00:16:17;;;;;;;;;;;;;;;7.85;90.15;97356.84;30001;983;1881;-72
2022/09/20 00:16:48;;;;;;;;;;;;;;;7.87;89.40;97360.09;30001;983;1876;-72
2022/09/20 00:17:18;;;;;;;;;;;;;;;7.87;88.85;97364.69;30001;982;1881;-73
2022/09/20 00:17:49;;;;;;;;;;;;;;;7.88;89.60;97361.72;30001;982;1876;-72
2022/09/20 00:18:20;;;;;;;;;;;;;;;7.87;89.18;97370.91;30001;982;1881;-72
2022/09/20 00:18:52;;;;;;;;;;;;;;;7.85;89.49;97364.94;30001;982;1863;-72
2022/09/20 00:19:24;;;;;;;;;;;;;;;7.87;89.80;97365.50;30001;982;1859;-72
2022/09/20 00:19:55;;;;;;;;;;;;;;;7.87;89.55;97365.50;30001;982;1877;-72
2022/09/20 00:20:26;;;;;;;;;;;;;;;7.87;88.58;97360.09;30001;983;1880;-73
2022/09/20 00:20:57;;;;;;;;;;;;;;;7.88;88.69;97364.41;30001;983;1876;-74
2022/09/20 00:21:28;;;;;;;;;;;;;;;7.88;88.31;97361.72;30001;983;1881;-73
2022/09/20 00:21:59;;;;;;;;;;;;;;;7.89;88.74;97360.66;30001;983;1876;-73
2022/09/20 00:22:30;;;;;;;;;;;;;;;7.89;88.32;97362.53;30001;983;1880;-72
2022/09/20 00:23:02;;;;;;;;;;;;;;;7.89;88.91;97363.34;30001;983;1876;-72
2022/09/20 00:23:36;;;;;;;;;;;;;;;7.90;88.07;97359.56;30001;983;1881;-72
2022/09/20 00:24:10;;;;;;;;;;;;;;;7.92;87.71;97362.00;30001;983;1863;-73
2022/09/20 00:24:41;;;;;;;;;;;;;;;7.92;88.16;97368.22;30001;982;1859;-74
2022/09/20 00:25:12;;;;;;;;;;;;;;;7.89;88.24;97363.34;30001;982;1877;-73
2022/09/20 00:25:43;;;;;;;;;;;;;;;7.90;88.41;97359.56;30001;982;1881;-72
2022/09/20 00:26:14;;;;;;;;;;;;;;;7.92;87.94;97357.41;30001;982;1877;-74
2022/09/20 00:26:45;;;;;;;;;;;;;;;7.94;86.64;97366.06;30001;982;1881;-73
2022/09/20 00:27:16;;;;;;;;;;;;;;;7.94;86.49;97363.37;30001;982;1877;-73
2022/09/20 00:27:47;;;;;;;;;;;;;;;7.94;86.98;97359.84;30001;982;1881;-74
2022/09/20 00:28:18;;;;;;;;;;;;;;;7.91;86.98;97360.38;30001;983;1876;-73
2022/09/20 00:28:50;;;;;;;;;;;;;;;7.89;87.58;97362.53;30001;983;1880;-73
2022/09/20 00:29:21;;;;;;;;;;;;;;;7.87;87.84;97360.09;30001;983;1863;-73
2022/09/20 00:29:52;;;;;;;;;;;;;;;7.87;88.14;97364.69;30001;983;1872;-74
2022/09/20 00:30:23;;;;;;;;;;;;;;;7.85;88.17;97362.25;30001;983;1876;-73
2022/09/20 00:30:55;;;;;;;;;;;;;;;7.86;88.37;97358.47;30001;983;1881;-57
2022/09/20 00:31:26;;;;;;;;;;;;;;;7.85;88.26;97359.53;30001;983;1867;-73
2022/09/20 00:31:56;;;;;;;;;;;;;;;7.84;88.65;97362.50;30001;983;1876;-73
2022/09/20 00:32:27;;;;;;;;;;;;;;;7.81;88.99;97360.31;30001;982;1881;-73
2022/09/20 00:32:58;;;;;;;;;;;;;;;7.80;88.78;97354.13;30001;982;1885;-74
2022/09/20 00:35:11;;;;;;;;;;;;;;;7.76;89.30;97366.50;30001;982;1868;-73
2022/09/20 00:35:42;;;;;;;;;;;;;;;7.78;89.25;97361.66;30001;983;1876;-72
2022/09/20 00:36:13;;;;;;;;;;;;;;;7.75;89.28;97367.59;30001;983;1880;-73
2022/09/20 00:36:44;;;;;;;;;;;;;;;7.76;89.15;97358.41;30001;983;1885;-73
2022/09/20 00:37:15;;;;;;;;;;;;;;;7.77;88.69;97360.03;30001;983;1880;-72
2022/09/20 00:37:45;;;;;;;;;;;;;;;7.80;87.86;97364.09;30001;983;1885;-72
2022/09/20 00:38:16;;;;;;;;;;;;;;;7.80;87.65;97367.62;30001;983;1881;-73
2022/09/20 00:38:47;;;;;;;;;;;;;;;7.80;87.18;97370.31;30001;983;1885;-74
2022/09/20 00:39:18;;;;;;;;;;;;;;;7.79;87.64;97368.69;30001;983;1881;-73
2022/09/20 00:39:49;;;;;;;;;;;;;;;7.80;87.74;97364.09;30001;982;1885;-72
2022/09/20 00:40:21;;;;;;;;;;;;;;;7.80;87.55;97370.31;30001;982;1868;-72
2022/09/20 00:40:52;;;;;;;;;;;;;;;7.83;87.54;97369.78;30001;982;1876;-72
2022/09/20 00:41:23;;;;;;;;;;;;;;;7.86;86.80;97361.16;30001;982;1868;-73
2022/09/20 00:41:54;;;;;;;;;;;;;;;7.87;86.63;97368.19;30001;982;1877;-73
2022/09/20 00:42:29;;;;;;;;;;;;;;;7.88;86.66;97364.41;30001;982;1881;-73
2022/09/20 00:43:00;;;;;;;;;;;;;;;7.88;86.45;97361.72;30001;982;1885;-73
2022/09/20 00:43:41;;;;;;;;;;;;;;;7.87;86.54;97370.91;30001;983;1880;-73
2022/09/20 00:44:30;;;;;;;;;;;;;;;7.89;86.47;97368.75;30001;983;1885;-72
2022/09/20 00:45:06;;;;;;;;;;;;;;;7.91;85.84;97366.59;30001;983;1872;-73
2022/09/20 00:45:37;;;;;;;;;;;;;;;7.92;85.76;97368.22;30001;983;1885;-72
2022/09/20 00:46:27;;;;;;;;;;;;;;;7.92;85.74;97356.59;30001;983;1881;-80
2022/09/20 00:46:59;;;;;;;;;;;;;;;7.88;86.43;97359.00;30001;975;1886;-72
2022/09/20 00:47:50;;;;;;;;;;;;;;;7.86;86.32;97358.47;30001;982;1872;-73
2022/09/20 00:48:24;;;;;;;;;;;;;;;7.84;86.53;97360.62;30001;982;1881;-73
2022/09/20 00:49:00;;;;;;;;;;;;;;;7.84;86.98;97357.91;30001;982;1881;-74
2022/09/20 00:49:33;;;;;;;;;;;;;;;7.83;86.92;97356.28;30001;982;1886;-72
2022/09/20 00:50:23;;;;;;;;;;;;;;;7.85;86.52;97351.44;30001;983;1881;-73
2022/09/20 00:50:56;;;;;;;;;;;;;;;7.86;87.10;97360.34;30001;983;1880;-72
2022/09/20 00:51:28;;;;;;;;;;;;;;;7.82;87.37;97357.38;30001;983;1881;-72
2022/09/20 00:52:01;;;;;;;;;;;;;;;7.81;87.55;97349.53;30001;983;1872;-73
2022/09/20 00:52:33;;;;;;;;;;;;;;;7.80;87.74;97354.13;30001;983;1872;-73
2022/09/20 00:53:10;;;;;;;;;;;;;;;7.79;87.45;97349.78;30001;983;1885;-74
2022/09/20 00:53:46;;;;;;;;;;;;;;;7.80;87.95;97359.50;30001;983;1881;-74
2022/09/20 00:54:19;;;;;;;;;;;;;;;7.81;87.94;97360.31;30001;983;1885;-73
2022/09/20 00:54:50;;;;;;;;;;;;;;;7.80;88.53;97354.13;30001;982;1881;-74
2022/09/20 00:55:21;;;;;;;;;;;;;;;7.82;88.45;97356.56;30001;982;1885;-57
2022/09/20 00:55:56;;;;;;;;;;;;;;;7.81;88.63;97358.44;30001;982;1881;-73
2022/09/20 00:56:40;;;;;;;;;;;;;;;7.81;88.32;97350.34;30001;982;1885;-74
2022/09/20 00:57:11;;;;;;;;;;;;;;;7.80;88.64;97356.81;30001;982;1868;-58
2022/09/20 00:57:43;;;;;;;;;;;;;;;7.81;89.21;97366.53;30001;983;1876;-74
2022/09/20 00:58:15;;;;;;;;;;;;;;;7.80;89.68;97354.13;30001;983;1880;-74
2022/09/20 00:58:51;;;;;;;;;;;;;;;7.79;89.66;97357.88;30001;983;1885;-72
2022/09/20 00:59:27;;;;;;;;;;;;;;;7.77;89.69;97360.03;30001;983;1867;-74
2022/09/20 00:59:58;;;;;;;;;;;;;;;7.74;89.85;97360.56;30001;983;1876;-73
2022/09/20 01:00:29;;;;;;;;;;;;;;;7.73;90.23;97359.75;30001;983;1880;-74
2022/09/20 01:00:59;;;;;;;;;;;;;;;7.72;90.10;97357.31;30001;983;1885;-76
2022/09/20 01:01:31;;;;;;;;;;;;;;;7.72;90.31;97357.31;30001;983;1881;-75
2022/09/20 01:02:07;;;;;;;;;;;;;;;7.73;89.78;97358.94;30001;983;1885;-73
2022/09/20 01:02:41;;;;;;;;;;;;;;;7.73;90.00;97353.53;30001;982;1881;-74
2022/09/20 01:03:13;;;;;;;;;;;;;;;7.74;89.90;97358.69;30001;982;1885;-74
2022/09/20 01:03:45;;;;;;;;;;;;;;;7.74;90.00;97357.84;30001;982;1881;-74
2022/09/20 01:04:15;;;;;;;;;;;;;;;7.74;89.35;97355.16;30001;982;1885;-74
2022/09/20 01:04:47;;;;;;;;;;;;;;;7.75;89.21;97362.19;30001;982;1868;-73
2022/09/20 01:05:18;;;;;;;;;;;;;;;7.76;88.75;97361.13;30001;983;1876;-74
2022/09/20 01:05:51;;;;;;;;;;;;;;;7.76;89.01;97358.41;30001;983;1880;-72
2022/09/20 01:06:22;;;;;;;;;;;;;;;7.78;88.67;97355.44;30001;983;1885;-72
2022/09/20 01:06:56;;;;;;;;;;;;;;;7.76;88.89;97369.22;30001;983;1880;-73
2022/09/20 01:07:28;;;;;;;;;;;;;;;7.73;88.47;97358.94;30001;983;1885;-74
2022/09/20 01:08:00;;;;;;;;;;;;;;;7.72;89.24;97360.00;30001;983;1881;-73
2022/09/20 01:08:33;;;;;;;;;;;;;;;7.70;89.05;97354.06;30001;983;1885;-74
2022/09/20 01:09:06;;;;;;;;;;;;;;;7.67;89.96;97354.56;30001;983;1881;-74
2022/09/20 01:09:36;;;;;;;;;;;;;;;7.64;89.81;97360.50;30001;983;1885;-74
2022/09/20 01:10:07;;;;;;;;;;;;;;;7.65;89.87;97354.03;30001;982;1868;-73
2022/09/20 01:10:38;;;;;;;;;;;;;;;7.65;89.80;97354.03;30001;982;1876;-73
2022/09/20 01:11:09;;;;;;;;;;;;;;;7.65;89.82;97356.72;30001;982;1881;-73
2022/09/20 01:11:41;;;;;;;;;;;;;;;7.64;89.85;97352.41;30001;982;1885;-74
2022/09/20 01:12:17;;;;;;;;;;;;;;;7.64;89.42;97355.09;30001;982;1881;-73
2022/09/20 01:12:49;;;;;;;;;;;;;;;7.63;89.21;97354.28;30001;983;1885;-74
2022/09/20 01:13:19;;;;;;;;;;;;;;;7.63;89.13;97353.47;30001;983;1881;-73
2022/09/20 01:13:50;;;;;;;;;;;;;;;7.64;89.00;97352.41;30001;983;1885;-73
2022/09/20 01:14:23;;;;;;;;;;;;;;;7.63;89.50;97348.87;30001;983;1880;-73
2022/09/20 01:14:54;;;;;;;;;;;;;;;7.64;89.36;97352.41;30001;983;1885;-72
2022/09/20 01:15:29;;;;;;;;;;;;;;;7.65;89.35;97349.44;30001;983;1867;-73
2022/09/20 01:16:01;;;;;;;;;;;;;;;7.72;87.40;97351.91;30001;983;1876;-73
2022/09/20 01:16:33;;;;;;;;;;;;;;;7.71;87.43;97350.28;30001;983;1881;-74
2022/09/20 01:17:04;;;;;;;;;;;;;;;7.70;88.00;97354.88;30001;983;1885;-57
2022/09/20 01:17:40;;;;;;;;;;;;;;;7.71;88.20;97347.59;30001;982;1808;-58
2022/09/20 01:18:11;;;;;;;;;;;;;;;7.70;88.08;97354.88;30001;982;1885;-73
2022/09/20 01:18:43;;;;;;;;;;;;;;;7.70;88.33;97354.06;30001;982;1881;-72
2022/09/20 01:19:32;;;;;;;;;;;;;;;7.71;88.25;97350.28;30001;982;1885;-74
2022/09/20 01:20:12;;;;;;;;;;;;;;;7.71;87.81;97352.97;30001;983;1872;-74
2022/09/20 01:20:44;;;;;;;;;;;;;;;7.68;87.73;97350.81;30001;983;1871;-73
2022/09/20 01:21:16;;;;;;;;;;;;;;;7.67;87.90;97349.19;30001;983;1872;-74
2022/09/20 01:21:47;;;;;;;;;;;;;;;7.67;88.00;97355.41;30001;983;1885;-74
2022/09/20 01:22:24;;;;;;;;;;;;;;;7.67;88.32;97352.69;30001;983;1881;-74
2022/09/20 01:23:11;;;;;;;;;;;;;;;7.68;88.24;97350.81;30001;983;1885;-74
2022/09/20 01:24:07;;;;;;;;;;;;;;;7.67;89.10;97351.88;30001;983;1881;-74
2022/09/20 01:24:43;;;;;;;;;;;;;;;7.67;89.06;97354.56;30001;982;1885;-72
2022/09/20 01:25:17;;;;;;;;;;;;;;;7.67;88.41;97360.78;30001;982;1881;-74
2022/09/20 01:26:16;;;;;;;;;;;;;;;7.67;88.58;97355.41;30001;982;1872;-74
2022/09/20 01:27:54;;;;;;;;;;;;;;;7.65;88.68;97357.53;89990;930;14000;-73
2022/09/20 01:28:26;;;;;;;;;;;;;;;7.65;88.76;97357.53;30001;983;1789;-59
2022/09/20 01:29:11;;;;;;;;;;;;;;;7.65;88.95;97356.72;30001;983;1868;-59
2022/09/20 01:30:11;;;;;;;;;;;;;;;7.66;89.34;97353.75;30001;983;1881;-58
2022/09/20 01:31:02;;;;;;;;;;;;;;;7.67;88.55;97350.00;30001;983;1859;-58
2022/09/20 01:31:36;;;;;;;;;;;;;;;7.66;88.49;97352.94;30001;982;1872;-58
2022/09/20 01:32:10;;;;;;;;;;;;;;;7.68;88.32;97357.03;30001;982;1877;-73
2022/09/20 01:33:07;;;;;;;;;;;;;;;7.69;88.72;97357.84;30001;982;1881;-58
2022/09/20 01:33:43;;;;;;;;;;;;;;;7.70;89.50;97359.47;30001;983;1872;-59
2022/09/20 01:34:20;;;;;;;;;;;;;;;7.70;89.34;97357.56;30001;983;1881;-58
2022/09/20 01:34:54;;;;;;;;;;;;;;;7.70;89.52;97360.28;30001;983;1782;-76
2022/09/20 01:35:27;;;;;;;;;;;;;;;7.71;89.45;97356.50;30001;983;1881;-58
2022/09/20 01:36:02;;;;;;;;;;;;;;;7.73;89.56;97356.22;30001;983;1863;-59
2022/09/20 01:36:51;;;;;;;;;;;;;;;7.76;89.42;97355.72;30001;983;1872;-59
2022/09/20 01:37:27;;;;;;;;;;;;;;;7.77;89.21;97351.94;30001;983;1868;-58
2022/09/20 01:38:17;;;;;;;;;;;;;;;7.79;89.65;97354.38;30001;982;1881;-59
2022/09/20 01:39:23;;;;;;;;;;;;;;;7.77;89.72;97354.63;30001;982;1873;-59
2022/09/20 01:40:19;;;;;;;;;;;;;;;7.75;90.33;97351.38;30001;982;1877;-59
2022/09/20 01:41:09;;;;;;;;;;;;;;;7.74;89.30;97352.47;30001;982;1877;-73
2022/09/20 01:41:45;;;;;;;;;;;;;;;7.73;89.38;97354.34;30001;983;1868;-59
2022/09/20 01:42:16;;;;;;;;;;;;;;;7.73;89.36;97353.53;30001;983;1868;-58
2022/09/20 01:43:01;;;;;;;;;;;;;;;7.73;89.32;97348.13;30001;983;1881;-58
2022/09/20 01:43:38;;;;;;;;;;;;;;;7.78;88.69;97353.56;30001;983;1876;-59
2022/09/20 01:44:16;;;;;;;;;;;;;;;7.78;88.17;97350.03;30001;983;1881;-59
2022/09/20 01:44:52;;;;;;;;;;;;;;;7.79;87.65;97351.66;30001;983;1877;-58
2022/09/20 01:45:28;;;;;;;;;;;;;;;7.78;87.80;97350.03;30001;982;1881;-58
2022/09/20 01:46:03;;;;;;;;;;;;;;;7.78;87.98;97344.66;30001;982;1877;-59
2022/09/20 01:46:35;;;;;;;;;;;;;;;7.78;88.15;97350.03;30001;982;1881;-58
2022/09/20 01:47:15;;;;;;;;;;;;;;;7.77;88.19;97346.53;30001;982;1864;-73
2022/09/20 01:48:04;;;;;;;;;;;;;;;7.84;87.25;97349.81;30001;982;1860;-58
2022/09/20 01:48:37;;;;;;;;;;;;;;;7.85;85.86;97343.34;30001;982;1868;-58
2022/09/20 01:49:31;;;;;;;;;;;;;;;7.85;85.86;97354.13;30001;983;1881;-73
2022/09/20 01:50:06;;;;;;;;;;;;;;;7.82;86.55;97341.16;30001;983;1859;-74
2022/09/20 01:51:02;;;;;;;;;;;;;;;7.82;86.82;97346.56;30001;983;1859;-59
2022/09/20 01:51:54;;;;;;;;;;;;;;;7.81;86.98;97347.63;30001;983;1877;-58
2022/09/20 01:52:46;;;;;;;;;;;;;;;7.81;87.85;97344.12;30001;983;1864;-60
2022/09/20 01:53:35;;;;;;;;;;;;;;;7.81;88.03;97349.53;30001;982;1868;-58
2022/09/20 01:54:44;;;;;;;;;;;;;;;7.80;87.97;97348.72;30001;982;1859;-72
2022/09/20 01:55:40;;;;;;;;;;;;;;;7.80;88.02;97348.72;30001;982;1864;-58
2022/09/20 01:56:24;;;;;;;;;;;;;;;7.81;87.32;97347.63;30001;983;1864;-58
2022/09/20 01:57:14;;;;;;;;;;;;;;;7.80;87.56;97351.41;30001;983;1868;-59
2022/09/20 01:58:05;;;;;;;;;;;;;;;7.78;87.77;97348.16;30001;983;1872;-74
2022/09/20 01:59:14;;;;;;;;;;;;;;;7.76;87.94;97344.91;30001;983;1872;-58
2022/09/20 02:00:17;;;;;;;;;;;;;;;7.80;87.39;97347.91;30001;983;1864;-58
2022/09/20 02:01:22;;;;;;;;;;;;;;;7.82;86.64;97343.84;30001;982;1851;-72
2022/09/20 02:02:13;;;;;;;;;;;;;;;7.83;86.59;97345.47;30001;982;1877;-58
2022/09/20 02:03:02;;;;;;;;;;;;;;;7.81;86.71;97347.63;30001;982;1873;-58
2022/09/20 02:03:55;;;;;;;;;;;;;;;7.81;86.99;97349.53;30001;962;1893;-59
2022/09/20 02:04:46;;;;;;;;;;;;;;;7.80;87.25;97345.19;30001;983;1859;-58
2022/09/20 02:05:33;;;;;;;;;;;;;;;7.80;87.33;97346.00;30001;983;1868;-58
2022/09/20 02:06:16;;;;;;;;;;;;;;;7.79;87.46;97347.09;30001;983;1877;-58
2022/09/20 02:07:05;;;;;;;;;;;;;;;7.79;88.13;97336.28;30001;983;1881;-59
2022/09/20 02:07:47;;;;;;;;;;;;;;;7.76;87.92;97350.31;30001;983;1855;-59
2022/09/20 02:08:33;;;;;;;;;;;;;;;7.76;88.25;97344.91;30001;982;1872;-58
2022/09/20 02:09:15;;;;;;;;;;;;;;;7.76;87.89;97347.59;30001;982;1877;-58
2022/09/20 02:10:02;;;;;;;;;;;;;;;7.75;88.09;97351.38;30001;982;1881;-59
2022/09/20 02:10:46;;;;;;;;;;;;;;;7.75;87.74;97351.38;30001;983;1876;-58
2022/09/20 02:11:21;;;;;;;;;;;;;;;7.76;87.96;97353.00;30001;983;1881;-58
2022/09/20 02:12:10;;;;;;;;;;;;;;;7.78;87.62;97352.75;30001;983;1863;-58
2022/09/20 02:13:07;;;;;;;;;;;;;;;7.79;86.96;97357.88;30001;983;1863;-58
2022/09/20 02:13:58;;;;;;;;;;;;;;;7.80;86.83;97347.91;30001;983;1872;-59
2022/09/20 02:14:46;;;;;;;;;;;;;;;7.80;87.84;97348.72;30001;983;1877;-58
2022/09/20 02:15:42;;;;;;;;;;;;;;;7.81;87.79;97346.81;30001;983;1877;-73
2022/09/20 02:16:48;;;;;;;;;;;;;;;7.82;87.68;97351.97;30001;982;1877;-73
2022/09/20 02:17:37;;;;;;;;;;;;;;;7.82;87.77;97349.25;30001;982;1860;-59
2022/09/20 02:18:40;;;;;;;;;;;;;;;7.83;87.83;97348.19;30001;983;1863;-57
2022/09/20 02:19:31;;;;;;;;;;;;;;;7.84;87.66;97347.09;30001;983;1872;-58
2022/09/20 02:20:37;;;;;;;;;;;;;;;7.85;87.99;97345.22;30001;983;1872;-58
2022/09/20 02:21:24;;;;;;;;;;;;;;;7.85;87.83;97351.44;30001;983;1873;-72
2022/09/20 02:22:13;;;;;;;;;;;;;;;7.85;87.52;97340.63;30001;983;1868;-72
2022/09/20 02:23:13;;;;;;;;;;;;;;;7.85;87.62;97346.03;30001;987;1859;-59
2022/09/20 02:23:55;;;;;;;;;;;;;;;7.85;87.75;97346.03;30001;982;1877;-58
2022/09/20 02:24:43;;;;;;;;;;;;;;;7.86;87.75;97346.84;30001;982;1877;-59
2022/09/20 02:25:22;;;;;;;;;;;;;;;7.85;87.79;97343.34;30001;982;1882;-58
2022/09/20 02:26:02;;;;;;;;;;;;;;;7.85;87.86;97340.63;30001;983;1876;-73
2022/09/20 02:27:01;;;;;;;;;;;;;;;7.85;87.79;97346.03;30001;983;1881;-58
2022/09/20 02:27:52;;;;;;;;;;;;;;;7.85;87.61;97347.91;30001;983;1864;-59
2022/09/20 02:28:42;;;;;;;;;;;;;;;7.86;87.79;97339.56;30001;983;1864;-74
2022/09/20 02:29:33;;;;;;;;;;;;;;;7.87;87.91;97338.47;30001;983;1873;-74
2022/09/20 02:30:33;;;;;;;;;;;;;;;7.87;88.07;97343.06;30001;982;1881;-73
2022/09/20 02:31:13;;;;;;;;;;;;;;;7.87;88.04;97337.66;30001;982;1877;-58
2022/09/20 02:32:13;;;;;;;;;;;;;;;7.86;87.83;97350.38;30001;982;1882;-58
2022/09/20 02:33:17;;;;;;;;;;;;;;;7.85;87.77;97343.34;30001;982;1860;-58
2022/09/20 02:34:04;;;;;;;;;;;;;;;7.85;87.88;97337.94;30001;983;1868;-58
2022/09/20 02:34:49;;;;;;;;;;;;;;;7.87;87.75;97343.06;30001;983;1877;-58
2022/09/20 02:35:34;;;;;;;;;;;;;;;7.86;87.75;97339.56;30001;983;1881;-58
2022/09/20 02:36:15;;;;;;;;;;;;;;;7.86;87.67;97342.25;30001;983;1877;-59
2022/09/20 02:37:24;;;;;;;;;;;;;;;7.89;87.94;97340.91;30001;983;1881;-73
2022/09/20 02:38:14;;;;;;;;;;;;;;;7.89;87.90;97341.72;30001;982;1859;-58
2022/09/20 02:39:05;;;;;;;;;;;;;;;7.89;87.65;97343.63;30001;982;1868;-58
2022/09/20 02:39:42;;;;;;;;;;;;;;;7.87;87.51;97341.19;30001;986;1864;-60
2022/09/20 02:40:35;;;;;;;;;;;;;;;7.88;88.14;97340.09;30001;982;1869;-59
2022/09/20 02:41:21;;;;;;;;;;;;;;;7.86;87.84;97342.25;30001;983;1863;-59
2022/09/20 02:42:12;;;;;;;;;;;;;;;7.86;88.03;97342.25;30001;983;1881;-58
2022/09/20 02:42:46;;;;;;;;;;;;;;;7.88;87.79;97345.50;30001;983;1859;-57
2022/09/20 02:43:36;;;;;;;;;;;;;;;7.91;87.08;97344.16;30001;983;1872;-58
2022/09/20 02:44:33;;;;;;;;;;;;;;;7.92;86.83;97351.19;30001;983;1859;-72
2022/09/20 02:45:27;;;;;;;;;;;;;;;7.90;86.84;97348.75;30001;982;1868;-58
2022/09/20 02:46:12;;;;;;;;;;;;;;;7.92;86.62;97352.00;30001;982;1745;-59
2022/09/20 02:47:01;;;;;;;;;;;;;;;7.90;86.62;97354.16;30001;982;1873;-60
2022/09/20 02:47:41;;;;;;;;;;;;;;;7.91;86.43;97358.50;30001;982;1855;-57
2022/09/20 02:48:15;;;;;;;;;;;;;;;7.91;86.65;97355.78;30001;983;1859;-58
2022/09/20 02:49:04;;;;;;;;;;;;;;;7.91;86.31;97355.78;30001;983;1877;-59
2022/09/20 02:49:45;;;;;;;;;;;;;;;7.91;86.68;97355.78;30001;983;1872;-59
2022/09/20 02:50:30;;;;;;;;;;;;;;;7.94;86.40;97355.25;30001;983;1877;-59
2022/09/20 02:51:07;;;;;;;;;;;;;;;7.96;85.51;97353.12;30001;983;1881;-58
2022/09/20 02:51:40;;;;;;;;;;;;;;;7.96;85.24;97353.12;30001;983;1877;-58
2022/09/20 02:52:25;;;;;;;;;;;;;;;7.97;85.56;97352.00;30001;983;1881;-58
2022/09/20 02:53:25;;;;;;;;;;;;;;;7.96;85.26;97352.28;30001;982;1877;-58
2022/09/20 02:54:14;;;;;;;;;;;;;;;7.96;84.93;97358.50;30001;982;1864;-59
2022/09/20 02:54:57;;;;;;;;;;;;;;;7.96;85.30;97345.00;30001;982;1860;-58
2022/09/20 02:55:34;;;;;;;;;;;;;;;7.95;85.85;97351.47;30001;982;1882;-58
2022/09/20 02:56:16;;;;;;;;;;;;;;;7.95;85.05;97356.87;30001;983;1877;-58
2022/09/20 02:56:59;;;;;;;;;;;;;;;7.94;84.74;97354.44;30001;983;1881;-59
2022/09/20 02:57:41;;;;;;;;;;;;;;;7.93;84.53;97347.41;30001;983;1877;-59
2022/09/20 02:58:32;;;;;;;;;;;;;;;7.91;84.83;97344.97;30001;983;1881;-58
2022/09/20 02:59:24;;;;;;;;;;;;;;;7.91;85.05;97350.38;30001;983;1859;-58
2022/09/20 03:00:20;;;;;;;;;;;;;;;7.95;84.55;97348.78;30001;983;1873;-59
2022/09/20 03:02:18;;;;;;;;;;;;;;;7.92;85.48;97354.72;89986;930;18000;-72
2022/09/20 03:03:17;;;;;;;;;;;;;;;7.88;85.81;97348.22;30001;983;1860;-75
2022/09/20 03:04:06;;;;;;;;;;;;;;;7.87;86.39;97349.28;30001;983;1864;-73
2022/09/20 03:04:55;;;;;;;;;;;;;;;7.87;86.14;97349.28;30001;983;1860;-75
2022/09/20 03:05:44;;;;;;;;;;;;;;;7.88;86.16;97352.81;30001;982;1869;-73
2022/09/20 03:06:40;;;;;;;;;;;;;;;7.85;85.46;97356.84;30001;982;1874;-71
2022/09/20 03:07:29;;;;;;;;;;;;;;;7.84;85.50;97349.81;30001;982;1874;-72
2022/09/20 03:08:22;;;;;;;;;;;;;;;7.84;85.94;97349.81;30001;983;1882;-57
2022/09/20 03:09:10;;;;;;;;;;;;;;;7.81;86.10;97350.34;30001;983;1873;-73
2022/09/20 03:09:48;;;;;;;;;;;;;;;7.81;86.69;97349.53;30001;983;1869;-73
2022/09/20 03:10:24;;;;;;;;;;;;;;;7.81;86.48;97350.34;30001;983;1869;-72
2022/09/20 03:11:21;;;;;;;;;;;;;;;7.79;87.09;97355.19;30001;983;1882;-74
2022/09/20 03:12:17;;;;;;;;;;;;;;;7.78;86.58;97347.34;30001;983;1874;-72
2022/09/20 03:12:56;;;;;;;;;;;;;;;7.79;86.75;97346.28;30001;982;1878;-73
2022/09/20 03:13:46;;;;;;;;;;;;;;;7.77;86.76;97346.53;30001;982;1878;-73
2022/09/20 03:14:27;;;;;;;;;;;;;;;7.76;87.43;97349.50;30001;982;1874;-72
2022/09/20 03:15:21;;;;;;;;;;;;;;;7.75;86.85;97356.78;30001;982;1865;-72
2022/09/20 03:16:01;;;;;;;;;;;;;;;7.75;87.18;97354.09;30001;983;1869;-73
2022/09/20 03:16:55;;;;;;;;;;;;;;;7.74;86.60;97360.56;30001;983;1877;-72
2022/09/20 03:17:48;;;;;;;;;;;;;;;7.74;86.88;97355.16;30001;983;1877;-72
2022/09/20 03:18:36;;;;;;;;;;;;;;;7.73;85.91;97354.34;30001;983;1878;-72
2022/09/20 03:19:24;;;;;;;;;;;;;;;7.72;86.19;97357.31;30001;983;1882;-71
2022/09/20 03:20:18;;;;;;;;;;;;;;;7.73;86.74;97358.94;30001;983;1878;-75
2022/09/20 03:20:57;;;;;;;;;;;;;;;7.71;84.78;97351.09;30001;982;1865;-78
2022/09/20 03:21:35;;;;;;;;;;;;;;;7.72;84.66;97360.00;30001;982;1869;-73
2022/09/20 03:22:25;;;;;;;;;;;;;;;7.73;84.28;97359.75;30001;982;1883;-74
2022/09/20 03:23:34;;;;;;;;;;;;;;;7.79;83.78;97355.19;30001;983;1868;-74
2022/09/20 03:24:23;;;;;;;;;;;;;;;7.80;84.92;97354.13;30001;983;1877;-73
2022/09/20 03:25:03;;;;;;;;;;;;;;;7.76;85.71;97357.59;30001;983;1869;-73
2022/09/20 03:25:51;;;;;;;;;;;;;;;7.74;86.42;97358.69;30001;983;1882;-73
2022/09/20 03:26:43;;;;;;;;;;;;;;;7.70;85.44;97356.75;30001;983;1864;-72
2022/09/20 03:27:42;;;;;;;;;;;;;;;7.70;85.71;97360.28;30001;983;1873;-72
2022/09/20 03:28:45;;;;;;;;;;;;;;;7.70;86.24;97359.47;30001;982;1775;-72
2022/09/20 03:29:50;;;;;;;;;;;;;;;7.68;86.38;97356.19;30001;984;1878;-72
2022/09/20 03:30:59;;;;;;;;;;;;;;;7.66;86.26;97361.06;30001;983;1873;-56
2022/09/20 03:31:48;;;;;;;;;;;;;;;7.66;86.06;97363.75;30001;964;1883;-74
2022/09/20 03:32:45;;;;;;;;;;;;;;;7.64;86.03;97358.63;30001;983;1860;-74
2022/09/20 03:33:34;;;;;;;;;;;;;;;7.64;86.29;97363.19;30001;986;1869;-76
2022/09/20 03:34:15;;;;;;;;;;;;;;;7.65;86.05;97359.44;30001;983;1873;-74
2022/09/20 03:34:55;;;;;;;;;;;;;;;7.66;86.17;97363.75;30001;983;1878;-56
2022/09/20 03:35:52;;;;;;;;;;;;;;;7.69;85.68;97363.22;30001;986;1882;-74
2022/09/20 03:36:46;;;;;;;;;;;;;;;7.67;84.95;97359.97;30001;982;1874;-58
2022/09/20 03:37:26;;;;;;;;;;;;;;;7.67;85.00;97370.78;30001;982;1865;-72
2022/09/20 03:38:05;;;;;;;;;;;;;;;7.67;85.60;97362.69;30001;983;1868;-72
2022/09/20 03:38:47;;;;;;;;;;;;;;;7.67;85.62;97359.97;30001;983;1882;-58
2022/09/20 03:39:37;;;;;;;;;;;;;;;7.69;85.84;97357.84;30001;983;1877;-58
2022/09/20 03:40:32;;;;;;;;;;;;;;;7.72;85.52;97360.81;30001;983;1873;-57
2022/09/20 03:41:32;;;;;;;;;;;;;;;7.72;85.76;97362.72;30001;983;1873;-58
2022/09/20 03:42:37;;;;;;;;;;;;;;;7.72;85.86;97362.72;30001;982;1878;-57
2022/09/20 03:43:27;;;;;;;;;;;;;;;7.74;85.90;97361.38;30001;982;1861;-58
2022/09/20 03:44:12;;;;;;;;;;;;;;;7.72;86.17;97357.31;30001;982;1865;-58
2022/09/20 03:45:01;;;;;;;;;;;;;;;7.72;86.90;97365.41;30001;982;1878;-57
2022/09/20 03:46:01;;;;;;;;;;;;;;;7.70;86.91;97364.84;30001;983;1873;-58
2022/09/20 03:46:54;;;;;;;;;;;;;;;7.66;87.32;97355.66;30001;983;1873;-58
2022/09/20 03:49:00;;;;;;;;;;;;;;;7.62;87.10;97360.75;89990;930;14000;-73